sensor_id;sensor_type;location;lat;lon;timestamp;P1;durP1;ratioP1;P2;durP2;ratioP2
58752;SDS011;44525;46.052;13.610;2023-05-27T00:01:30;15.85;;;9.48;;
58752;SDS011;44525;46.052;13.610;2023-05-27T00:03:55;15.45;;;8.90;;
58752;SDS011;44525;46.052;13.610;2023-05-27T00:06:21;16.75;;;9.30;;
58752;SDS011;44525;46.052;13.610;2023-05-27T00:08:46;20.23;;;9.40;;
58752;SDS011;44525;46.052;13.610;2023-05-27T00:11:11;14.15;;;9.55;;
58752;SDS011;44525;46.052;13.610;2023-05-27T00:13:37;13.88;;;9.07;;
58752;SDS011;44525;46.052;13.610;2023-05-27T00:16:02;15.60;;;10.13;;
58752;SDS011;44525;46.052;13.610;2023-05-27T00:18:28;14.18;;;9.55;;
58752;SDS011;44525;46.052;13.610;2023-05-27T00:20:53;16.15;;;9.30;;
58752;SDS011;44525;46.052;13.610;2023-05-27T00:23:19;14.00;;;9.10;;
58752;SDS011;44525;46.052;13.610;2023-05-27T00:25:45;14.70;;;9.57;;
58752;SDS011;44525;46.052;13.610;2023-05-27T00:28:12;15.50;;;8.90;;
58752;SDS011;44525;46.052;13.610;2023-05-27T00:30:37;13.43;;;9.13;;
58752;SDS011;44525;46.052;13.610;2023-05-27T00:33:02;13.43;;;9.05;;
58752;SDS011;44525;46.052;13.610;2023-05-27T00:35:28;15.18;;;8.80;;
58752;SDS011;44525;46.052;13.610;2023-05-27T00:37:54;15.15;;;8.55;;
58752;SDS011;44525;46.052;13.610;2023-05-27T00:40:20;18.33;;;8.25;;
58752;SDS011;44525;46.052;13.610;2023-05-27T00:42:47;12.50;;;8.40;;
58752;SDS011;44525;46.052;13.610;2023-05-27T00:45:13;13.85;;;9.38;;
58752;SDS011;44525;46.052;13.610;2023-05-27T00:47:38;12.70;;;8.90;;
58752;SDS011;44525;46.052;13.610;2023-05-27T00:50:05;12.65;;;8.77;;
58752;SDS011;44525;46.052;13.610;2023-05-27T00:52:32;13.77;;;9.02;;
58752;SDS011;44525;46.052;13.610;2023-05-27T00:54:58;16.35;;;9.80;;
58752;SDS011;44525;46.052;13.610;2023-05-27T00:57:24;13.57;;;8.98;;
58752;SDS011;44525;46.052;13.610;2023-05-27T00:59:51;13.60;;;8.88;;
58752;SDS011;44525;46.052;13.610;2023-05-27T01:02:17;14.18;;;9.18;;
58752;SDS011;44525;46.052;13.610;2023-05-27T01:04:42;16.58;;;8.77;;
58752;SDS011;44525;46.052;13.610;2023-05-27T01:07:10;15.70;;;9.13;;
58752;SDS011;44525;46.052;13.610;2023-05-27T01:12:28;13.68;;;8.00;;
58752;SDS011;44525;46.052;13.610;2023-05-27T01:14:55;12.75;;;8.88;;
58752;SDS011;44525;46.052;13.610;2023-05-27T01:17:23;17.15;;;8.68;;
58752;SDS011;44525;46.052;13.610;2023-05-27T01:19:51;12.18;;;8.57;;
58752;SDS011;44525;46.052;13.610;2023-05-27T01:22:18;11.88;;;8.50;;
58752;SDS011;44525;46.052;13.610;2023-05-27T01:24:44;12.77;;;8.35;;
58752;SDS011;44525;46.052;13.610;2023-05-27T01:27:10;15.20;;;8.57;;
58752;SDS011;44525;46.052;13.610;2023-05-27T01:29:37;15.77;;;8.23;;
58752;SDS011;44525;46.052;13.610;2023-05-27T01:34:40;11.80;;;8.05;;
58752;SDS011;44525;46.052;13.610;2023-05-27T01:37:13;15.63;;;8.88;;
58752;SDS011;44525;46.052;13.610;2023-05-27T01:39:41;14.95;;;9.25;;
58752;SDS011;44525;46.052;13.610;2023-05-27T01:42:08;13.85;;;8.40;;
58752;SDS011;44525;46.052;13.610;2023-05-27T01:44:33;12.27;;;8.65;;
58752;SDS011;44525;46.052;13.610;2023-05-27T01:47:00;15.13;;;9.13;;
58752;SDS011;44525;46.052;13.610;2023-05-27T01:49:26;13.63;;;8.07;;
58752;SDS011;44525;46.052;13.610;2023-05-27T01:51:52;11.60;;;8.43;;
58752;SDS011;44525;46.052;13.610;2023-05-27T01:54:17;12.63;;;8.23;;
58752;SDS011;44525;46.052;13.610;2023-05-27T01:56:43;13.07;;;8.98;;
58752;SDS011;44525;46.052;13.610;2023-05-27T01:59:08;14.13;;;8.40;;
58752;SDS011;44525;46.052;13.610;2023-05-27T02:01:34;13.40;;;8.95;;
58752;SDS011;44525;46.052;13.610;2023-05-27T02:03:59;11.10;;;8.20;;
58752;SDS011;44525;46.052;13.610;2023-05-27T02:06:24;14.77;;;8.77;;
58752;SDS011;44525;46.052;13.610;2023-05-27T02:08:51;14.93;;;8.20;;
58752;SDS011;44525;46.052;13.610;2023-05-27T02:11:16;13.15;;;8.13;;
58752;SDS011;44525;46.052;13.610;2023-05-27T02:13:41;12.65;;;8.57;;
58752;SDS011;44525;46.052;13.610;2023-05-27T02:16:08;12.25;;;7.38;;
58752;SDS011;44525;46.052;13.610;2023-05-27T02:18:34;11.15;;;8.05;;
58752;SDS011;44525;46.052;13.610;2023-05-27T02:21:00;11.77;;;8.02;;
58752;SDS011;44525;46.052;13.610;2023-05-27T02:23:30;12.98;;;8.10;;
58752;SDS011;44525;46.052;13.610;2023-05-27T02:25:56;14.95;;;7.88;;
58752;SDS011;44525;46.052;13.610;2023-05-27T02:28:21;11.75;;;8.48;;
58752;SDS011;44525;46.052;13.610;2023-05-27T02:30:47;12.00;;;7.88;;
58752;SDS011;44525;46.052;13.610;2023-05-27T02:33:12;13.77;;;9.13;;
58752;SDS011;44525;46.052;13.610;2023-05-27T02:35:37;12.07;;;8.38;;
58752;SDS011;44525;46.052;13.610;2023-05-27T02:38:03;12.65;;;9.05;;
58752;SDS011;44525;46.052;13.610;2023-05-27T02:40:28;16.52;;;8.82;;
58752;SDS011;44525;46.052;13.610;2023-05-27T02:42:55;13.45;;;8.13;;
58752;SDS011;44525;46.052;13.610;2023-05-27T02:45:21;15.38;;;8.50;;
58752;SDS011;44525;46.052;13.610;2023-05-27T02:47:46;13.90;;;8.50;;
58752;SDS011;44525;46.052;13.610;2023-05-27T02:50:12;13.85;;;7.80;;
58752;SDS011;44525;46.052;13.610;2023-05-27T02:52:37;12.88;;;7.80;;
58752;SDS011;44525;46.052;13.610;2023-05-27T02:55:03;14.27;;;9.02;;
58752;SDS011;44525;46.052;13.610;2023-05-27T02:57:28;12.80;;;8.77;;
58752;SDS011;44525;46.052;13.610;2023-05-27T02:59:54;16.23;;;8.50;;
58752;SDS011;44525;46.052;13.610;2023-05-27T03:02:19;14.05;;;8.25;;
58752;SDS011;44525;46.052;13.610;2023-05-27T03:04:45;14.20;;;8.65;;
58752;SDS011;44525;46.052;13.610;2023-05-27T03:07:10;12.30;;;8.00;;
58752;SDS011;44525;46.052;13.610;2023-05-27T03:09:35;13.50;;;8.40;;
58752;SDS011;44525;46.052;13.610;2023-05-27T03:12:01;13.73;;;8.52;;
58752;SDS011;44525;46.052;13.610;2023-05-27T03:14:26;12.07;;;8.25;;
58752;SDS011;44525;46.052;13.610;2023-05-27T03:16:53;12.02;;;7.93;;
58752;SDS011;44525;46.052;13.610;2023-05-27T03:19:18;14.80;;;7.97;;
58752;SDS011;44525;46.052;13.610;2023-05-27T03:21:44;11.30;;;8.32;;
58752;SDS011;44525;46.052;13.610;2023-05-27T03:24:09;11.18;;;7.75;;
58752;SDS011;44525;46.052;13.610;2023-05-27T03:26:35;13.93;;;8.10;;
58752;SDS011;44525;46.052;13.610;2023-05-27T03:29:00;12.13;;;8.50;;
58752;SDS011;44525;46.052;13.610;2023-05-27T03:31:26;14.65;;;8.07;;
58752;SDS011;44525;46.052;13.610;2023-05-27T03:33:51;12.93;;;8.52;;
58752;SDS011;44525;46.052;13.610;2023-05-27T03:36:16;12.52;;;8.70;;
58752;SDS011;44525;46.052;13.610;2023-05-27T03:38:42;14.55;;;8.38;;
58752;SDS011;44525;46.052;13.610;2023-05-27T03:41:07;12.20;;;8.35;;
58752;SDS011;44525;46.052;13.610;2023-05-27T03:43:32;15.90;;;8.70;;
58752;SDS011;44525;46.052;13.610;2023-05-27T03:45:58;10.90;;;7.88;;
58752;SDS011;44525;46.052;13.610;2023-05-27T03:48:23;12.55;;;8.48;;
58752;SDS011;44525;46.052;13.610;2023-05-27T03:50:48;14.25;;;8.82;;
58752;SDS011;44525;46.052;13.610;2023-05-27T03:53:14;14.85;;;8.45;;
58752;SDS011;44525;46.052;13.610;2023-05-27T03:55:39;13.65;;;8.13;;
58752;SDS011;44525;46.052;13.610;2023-05-27T03:58:04;12.80;;;7.53;;
58752;SDS011;44525;46.052;13.610;2023-05-27T04:00:30;14.75;;;8.25;;
58752;SDS011;44525;46.052;13.610;2023-05-27T04:02:55;12.52;;;8.60;;
58752;SDS011;44525;46.052;13.610;2023-05-27T04:05:21;13.10;;;7.35;;
58752;SDS011;44525;46.052;13.610;2023-05-27T04:07:46;12.00;;;8.15;;
58752;SDS011;44525;46.052;13.610;2023-05-27T04:10:12;11.15;;;7.72;;
58752;SDS011;44525;46.052;13.610;2023-05-27T04:12:38;13.30;;;7.93;;
58752;SDS011;44525;46.052;13.610;2023-05-27T04:15:05;13.20;;;8.85;;
58752;SDS011;44525;46.052;13.610;2023-05-27T04:17:31;15.80;;;9.85;;
58752;SDS011;44525;46.052;13.610;2023-05-27T04:19:56;15.20;;;8.05;;
58752;SDS011;44525;46.052;13.610;2023-05-27T04:22:22;14.52;;;9.30;;
58752;SDS011;44525;46.052;13.610;2023-05-27T04:24:47;13.40;;;8.70;;
58752;SDS011;44525;46.052;13.610;2023-05-27T04:27:13;12.90;;;9.25;;
58752;SDS011;44525;46.052;13.610;2023-05-27T04:29:41;13.13;;;8.15;;
58752;SDS011;44525;46.052;13.610;2023-05-27T04:32:08;15.63;;;8.45;;
58752;SDS011;44525;46.052;13.610;2023-05-27T04:34:34;11.38;;;7.68;;
58752;SDS011;44525;46.052;13.610;2023-05-27T04:37:00;12.07;;;8.20;;
58752;SDS011;44525;46.052;13.610;2023-05-27T04:39:26;12.27;;;8.80;;
58752;SDS011;44525;46.052;13.610;2023-05-27T04:41:51;13.02;;;8.18;;
58752;SDS011;44525;46.052;13.610;2023-05-27T04:44:16;11.48;;;8.05;;
58752;SDS011;44525;46.052;13.610;2023-05-27T04:46:42;11.48;;;8.20;;
58752;SDS011;44525;46.052;13.610;2023-05-27T04:49:08;12.02;;;8.27;;
58752;SDS011;44525;46.052;13.610;2023-05-27T04:51:35;14.63;;;8.88;;
58752;SDS011;44525;46.052;13.610;2023-05-27T04:54:01;13.85;;;8.77;;
58752;SDS011;44525;46.052;13.610;2023-05-27T04:56:27;11.85;;;8.02;;
58752;SDS011;44525;46.052;13.610;2023-05-27T04:58:52;16.35;;;8.43;;
58752;SDS011;44525;46.052;13.610;2023-05-27T05:01:17;15.65;;;8.80;;
58752;SDS011;44525;46.052;13.610;2023-05-27T05:03:45;15.50;;;8.90;;
58752;SDS011;44525;46.052;13.610;2023-05-27T05:06:20;11.27;;;7.47;;
58752;SDS011;44525;46.052;13.610;2023-05-27T05:08:47;14.32;;;7.75;;
58752;SDS011;44525;46.052;13.610;2023-05-27T05:11:13;11.30;;;7.82;;
58752;SDS011;44525;46.052;13.610;2023-05-27T05:13:39;13.18;;;8.43;;
58752;SDS011;44525;46.052;13.610;2023-05-27T05:16:04;14.35;;;8.15;;
58752;SDS011;44525;46.052;13.610;2023-05-27T05:18:30;11.63;;;7.85;;
58752;SDS011;44525;46.052;13.610;2023-05-27T05:20:55;12.90;;;8.35;;
58752;SDS011;44525;46.052;13.610;2023-05-27T05:23:20;12.45;;;8.40;;
58752;SDS011;44525;46.052;13.610;2023-05-27T05:25:46;16.25;;;8.10;;
58752;SDS011;44525;46.052;13.610;2023-05-27T05:28:12;13.32;;;8.27;;
58752;SDS011;44525;46.052;13.610;2023-05-27T05:30:38;13.15;;;7.78;;
58752;SDS011;44525;46.052;13.610;2023-05-27T05:33:04;12.32;;;8.57;;
58752;SDS011;44525;46.052;13.610;2023-05-27T05:35:29;13.07;;;7.63;;
58752;SDS011;44525;46.052;13.610;2023-05-27T05:37:55;14.73;;;8.52;;
58752;SDS011;44525;46.052;13.610;2023-05-27T05:40:21;10.90;;;8.02;;
58752;SDS011;44525;46.052;13.610;2023-05-27T05:42:47;12.38;;;8.68;;
58752;SDS011;44525;46.052;13.610;2023-05-27T05:45:13;11.75;;;7.95;;
58752;SDS011;44525;46.052;13.610;2023-05-27T05:47:38;14.48;;;8.23;;
58752;SDS011;44525;46.052;13.610;2023-05-27T05:50:03;14.00;;;7.35;;
58752;SDS011;44525;46.052;13.610;2023-05-27T05:52:29;10.68;;;7.45;;
58752;SDS011;44525;46.052;13.610;2023-05-27T05:54:54;11.55;;;7.30;;
58752;SDS011;44525;46.052;13.610;2023-05-27T05:57:20;11.48;;;7.30;;
58752;SDS011;44525;46.052;13.610;2023-05-27T05:59:45;10.23;;;7.40;;
58752;SDS011;44525;46.052;13.610;2023-05-27T06:02:10;16.92;;;7.72;;
58752;SDS011;44525;46.052;13.610;2023-05-27T06:04:36;11.50;;;7.28;;
58752;SDS011;44525;46.052;13.610;2023-05-27T06:07:01;17.65;;;8.38;;
58752;SDS011;44525;46.052;13.610;2023-05-27T06:09:26;9.38;;;7.40;;
58752;SDS011;44525;46.052;13.610;2023-05-27T06:11:52;10.85;;;7.63;;
58752;SDS011;44525;46.052;13.610;2023-05-27T06:14:17;13.68;;;7.57;;
58752;SDS011;44525;46.052;13.610;2023-05-27T06:16:42;10.02;;;7.47;;
58752;SDS011;44525;46.052;13.610;2023-05-27T06:19:08;11.13;;;7.05;;
58752;SDS011;44525;46.052;13.610;2023-05-27T06:21:33;11.85;;;7.15;;
58752;SDS011;44525;46.052;13.610;2023-05-27T06:23:59;13.27;;;8.35;;
58752;SDS011;44525;46.052;13.610;2023-05-27T06:26:25;11.95;;;7.55;;
58752;SDS011;44525;46.052;13.610;2023-05-27T06:28:52;12.07;;;7.45;;
58752;SDS011;44525;46.052;13.610;2023-05-27T06:31:17;11.40;;;6.88;;
58752;SDS011;44525;46.052;13.610;2023-05-27T06:33:43;11.90;;;7.65;;
58752;SDS011;44525;46.052;13.610;2023-05-27T06:36:08;12.48;;;7.80;;
58752;SDS011;44525;46.052;13.610;2023-05-27T06:38:33;11.93;;;7.13;;
58752;SDS011;44525;46.052;13.610;2023-05-27T06:40:59;14.00;;;7.53;;
58752;SDS011;44525;46.052;13.610;2023-05-27T06:43:24;12.75;;;7.20;;
58752;SDS011;44525;46.052;13.610;2023-05-27T06:45:49;11.43;;;7.15;;
58752;SDS011;44525;46.052;13.610;2023-05-27T06:48:15;11.20;;;6.85;;
58752;SDS011;44525;46.052;13.610;2023-05-27T06:50:40;11.45;;;6.95;;
58752;SDS011;44525;46.052;13.610;2023-05-27T06:53:05;12.20;;;7.45;;
58752;SDS011;44525;46.052;13.610;2023-05-27T06:55:31;11.75;;;7.00;;
58752;SDS011;44525;46.052;13.610;2023-05-27T06:57:56;11.40;;;7.45;;
58752;SDS011;44525;46.052;13.610;2023-05-27T07:00:21;13.15;;;6.95;;
58752;SDS011;44525;46.052;13.610;2023-05-27T07:02:47;12.77;;;7.40;;
58752;SDS011;44525;46.052;13.610;2023-05-27T07:05:12;18.13;;;7.18;;
58752;SDS011;44525;46.052;13.610;2023-05-27T07:07:37;11.75;;;7.35;;
58752;SDS011;44525;46.052;13.610;2023-05-27T07:10:03;10.73;;;7.30;;
58752;SDS011;44525;46.052;13.610;2023-05-27T07:12:28;10.63;;;6.63;;
58752;SDS011;44525;46.052;13.610;2023-05-27T07:14:54;9.82;;;6.90;;
58752;SDS011;44525;46.052;13.610;2023-05-27T07:17:19;9.90;;;6.68;;
58752;SDS011;44525;46.052;13.610;2023-05-27T07:19:44;13.13;;;7.35;;
58752;SDS011;44525;46.052;13.610;2023-05-27T07:22:10;12.18;;;6.82;;
58752;SDS011;44525;46.052;13.610;2023-05-27T07:24:35;11.18;;;6.78;;
58752;SDS011;44525;46.052;13.610;2023-05-27T07:27:00;10.90;;;6.90;;
58752;SDS011;44525;46.052;13.610;2023-05-27T07:29:26;11.05;;;6.75;;
58752;SDS011;44525;46.052;13.610;2023-05-27T07:31:51;14.00;;;7.25;;
58752;SDS011;44525;46.052;13.610;2023-05-27T07:34:17;11.57;;;7.32;;
58752;SDS011;44525;46.052;13.610;2023-05-27T07:36:43;11.05;;;7.03;;
58752;SDS011;44525;46.052;13.610;2023-05-27T07:39:08;11.35;;;6.80;;
58752;SDS011;44525;46.052;13.610;2023-05-27T07:41:33;11.13;;;7.05;;
58752;SDS011;44525;46.052;13.610;2023-05-27T07:43:59;10.90;;;6.38;;
58752;SDS011;44525;46.052;13.610;2023-05-27T07:46:24;13.43;;;7.50;;
58752;SDS011;44525;46.052;13.610;2023-05-27T07:48:50;13.55;;;7.45;;
58752;SDS011;44525;46.052;13.610;2023-05-27T07:51:15;14.50;;;7.63;;
58752;SDS011;44525;46.052;13.610;2023-05-27T07:53:41;12.00;;;7.25;;
58752;SDS011;44525;46.052;13.610;2023-05-27T07:56:06;9.85;;;6.75;;
58752;SDS011;44525;46.052;13.610;2023-05-27T07:58:31;11.65;;;7.60;;
58752;SDS011;44525;46.052;13.610;2023-05-27T08:00:57;10.35;;;6.90;;
58752;SDS011;44525;46.052;13.610;2023-05-27T08:03:22;11.43;;;7.22;;
58752;SDS011;44525;46.052;13.610;2023-05-27T08:05:48;15.32;;;6.85;;
58752;SDS011;44525;46.052;13.610;2023-05-27T08:08:13;10.73;;;7.30;;
58752;SDS011;44525;46.052;13.610;2023-05-27T08:10:38;9.55;;;6.38;;
58752;SDS011;44525;46.052;13.610;2023-05-27T08:13:04;12.02;;;7.35;;
58752;SDS011;44525;46.052;13.610;2023-05-27T08:15:30;11.95;;;7.32;;
58752;SDS011;44525;46.052;13.610;2023-05-27T08:17:55;11.15;;;7.30;;
58752;SDS011;44525;46.052;13.610;2023-05-27T08:20:21;12.75;;;8.13;;
58752;SDS011;44525;46.052;13.610;2023-05-27T08:22:46;10.93;;;7.05;;
58752;SDS011;44525;46.052;13.610;2023-05-27T08:25:11;10.57;;;7.22;;
58752;SDS011;44525;46.052;13.610;2023-05-27T08:30:10;12.63;;;7.05;;
58752;SDS011;44525;46.052;13.610;2023-05-27T08:32:36;10.93;;;7.40;;
58752;SDS011;44525;46.052;13.610;2023-05-27T08:35:02;15.32;;;7.40;;
58752;SDS011;44525;46.052;13.610;2023-05-27T08:37:27;9.43;;;6.65;;
58752;SDS011;44525;46.052;13.610;2023-05-27T08:39:53;12.07;;;6.78;;
58752;SDS011;44525;46.052;13.610;2023-05-27T08:42:19;12.95;;;6.63;;
58752;SDS011;44525;46.052;13.610;2023-05-27T08:44:45;13.60;;;7.97;;
58752;SDS011;44525;46.052;13.610;2023-05-27T08:47:11;9.95;;;6.70;;
58752;SDS011;44525;46.052;13.610;2023-05-27T08:49:36;12.30;;;6.90;;
58752;SDS011;44525;46.052;13.610;2023-05-27T08:52:02;10.65;;;6.93;;
58752;SDS011;44525;46.052;13.610;2023-05-27T08:54:29;9.68;;;6.65;;
58752;SDS011;44525;46.052;13.610;2023-05-27T08:56:56;10.18;;;6.70;;
58752;SDS011;44525;46.052;13.610;2023-05-27T08:59:24;11.40;;;6.85;;
58752;SDS011;44525;46.052;13.610;2023-05-27T09:01:50;9.20;;;6.32;;
58752;SDS011;44525;46.052;13.610;2023-05-27T09:04:17;12.57;;;7.07;;
58752;SDS011;44525;46.052;13.610;2023-05-27T09:06:42;12.55;;;6.78;;
58752;SDS011;44525;46.052;13.610;2023-05-27T09:09:07;11.82;;;7.13;;
58752;SDS011;44525;46.052;13.610;2023-05-27T09:11:34;10.77;;;7.03;;
58752;SDS011;44525;46.052;13.610;2023-05-27T09:14:07;10.88;;;6.78;;
58752;SDS011;44525;46.052;13.610;2023-05-27T09:16:33;8.57;;;6.00;;
58752;SDS011;44525;46.052;13.610;2023-05-27T09:18:58;10.70;;;6.68;;
58752;SDS011;44525;46.052;13.610;2023-05-27T09:21:24;10.63;;;6.80;;
58752;SDS011;44525;46.052;13.610;2023-05-27T09:23:56;11.73;;;6.75;;
58752;SDS011;44525;46.052;13.610;2023-05-27T09:26:23;9.52;;;6.38;;
58752;SDS011;44525;46.052;13.610;2023-05-27T09:28:48;11.13;;;7.38;;
58752;SDS011;44525;46.052;13.610;2023-05-27T09:31:14;11.75;;;7.18;;
58752;SDS011;44525;46.052;13.610;2023-05-27T09:33:39;9.80;;;6.53;;
58752;SDS011;44525;46.052;13.610;2023-05-27T09:36:06;9.48;;;6.55;;
58752;SDS011;44525;46.052;13.610;2023-05-27T09:38:35;11.68;;;6.65;;
58752;SDS011;44525;46.052;13.610;2023-05-27T09:41:02;10.07;;;6.80;;
58752;SDS011;44525;46.052;13.610;2023-05-27T09:43:28;9.15;;;6.60;;
58752;SDS011;44525;46.052;13.610;2023-05-27T09:46:03;11.65;;;7.40;;
58752;SDS011;44525;46.052;13.610;2023-05-27T09:48:35;11.57;;;6.88;;
58752;SDS011;44525;46.052;13.610;2023-05-27T09:51:02;8.85;;;6.47;;
58752;SDS011;44525;46.052;13.610;2023-05-27T09:53:29;12.43;;;6.40;;
58752;SDS011;44525;46.052;13.610;2023-05-27T09:55:56;11.55;;;7.63;;
58752;SDS011;44525;46.052;13.610;2023-05-27T09:58:22;9.55;;;7.97;;
58752;SDS011;44525;46.052;13.610;2023-05-27T10:00:49;10.18;;;7.05;;
58752;SDS011;44525;46.052;13.610;2023-05-27T10:03:21;10.30;;;7.40;;
58752;SDS011;44525;46.052;13.610;2023-05-27T10:05:49;10.05;;;6.75;;
58752;SDS011;44525;46.052;13.610;2023-05-27T10:08:16;9.43;;;6.25;;
58752;SDS011;44525;46.052;13.610;2023-05-27T10:10:42;12.23;;;7.00;;
58752;SDS011;44525;46.052;13.610;2023-05-27T10:13:08;10.90;;;7.43;;
58752;SDS011;44525;46.052;13.610;2023-05-27T10:15:34;10.68;;;7.30;;
58752;SDS011;44525;46.052;13.610;2023-05-27T10:18:04;11.23;;;6.68;;
58752;SDS011;44525;46.052;13.610;2023-05-27T10:20:32;9.55;;;6.50;;
58752;SDS011;44525;46.052;13.610;2023-05-27T10:25:48;8.88;;;6.43;;
58752;SDS011;44525;46.052;13.610;2023-05-27T10:28:28;10.18;;;6.53;;
58752;SDS011;44525;46.052;13.610;2023-05-27T10:33:36;10.68;;;7.13;;
58752;SDS011;44525;46.052;13.610;2023-05-27T10:36:11;10.60;;;6.82;;
58752;SDS011;44525;46.052;13.610;2023-05-27T10:38:38;9.43;;;6.80;;
58752;SDS011;44525;46.052;13.610;2023-05-27T10:41:06;10.05;;;6.75;;
58752;SDS011;44525;46.052;13.610;2023-05-27T10:43:32;10.50;;;6.80;;
58752;SDS011;44525;46.052;13.610;2023-05-27T10:46:06;13.15;;;7.80;;
58752;SDS011;44525;46.052;13.610;2023-05-27T10:48:33;10.63;;;6.90;;
58752;SDS011;44525;46.052;13.610;2023-05-27T10:50:59;13.43;;;8.80;;
58752;SDS011;44525;46.052;13.610;2023-05-27T10:53:28;10.82;;;6.82;;
58752;SDS011;44525;46.052;13.610;2023-05-27T10:55:57;8.82;;;6.78;;
58752;SDS011;44525;46.052;13.610;2023-05-27T10:58:23;10.20;;;6.90;;
58752;SDS011;44525;46.052;13.610;2023-05-27T11:00:50;11.10;;;6.78;;
58752;SDS011;44525;46.052;13.610;2023-05-27T11:03:17;12.65;;;7.57;;
58752;SDS011;44525;46.052;13.610;2023-05-27T11:05:43;10.18;;;6.65;;
58752;SDS011;44525;46.052;13.610;2023-05-27T11:08:11;10.93;;;7.20;;
58752;SDS011;44525;46.052;13.610;2023-05-27T11:10:39;8.93;;;6.15;;
58752;SDS011;44525;46.052;13.610;2023-05-27T11:13:05;10.73;;;7.28;;
58752;SDS011;44525;46.052;13.610;2023-05-27T11:15:31;11.38;;;7.20;;
58752;SDS011;44525;46.052;13.610;2023-05-27T11:18:02;11.07;;;7.38;;
58752;SDS011;44525;46.052;13.610;2023-05-27T11:20:37;11.00;;;6.88;;
58752;SDS011;44525;46.052;13.610;2023-05-27T11:23:03;10.73;;;7.07;;
58752;SDS011;44525;46.052;13.610;2023-05-27T11:25:29;10.27;;;7.13;;
58752;SDS011;44525;46.052;13.610;2023-05-27T11:27:54;13.70;;;6.95;;
58752;SDS011;44525;46.052;13.610;2023-05-27T11:30:23;9.32;;;7.20;;
58752;SDS011;44525;46.052;13.610;2023-05-27T11:32:49;12.52;;;7.68;;
58752;SDS011;44525;46.052;13.610;2023-05-27T11:35:15;11.10;;;6.90;;
58752;SDS011;44525;46.052;13.610;2023-05-27T11:37:46;11.45;;;7.20;;
58752;SDS011;44525;46.052;13.610;2023-05-27T11:40:14;9.32;;;6.97;;
58752;SDS011;44525;46.052;13.610;2023-05-27T11:42:46;10.02;;;6.32;;
58752;SDS011;44525;46.052;13.610;2023-05-27T11:45:15;10.18;;;7.15;;
58752;SDS011;44525;46.052;13.610;2023-05-27T11:47:44;9.93;;;6.47;;
58752;SDS011;44525;46.052;13.610;2023-05-27T11:50:16;10.68;;;6.75;;
58752;SDS011;44525;46.052;13.610;2023-05-27T11:52:49;10.43;;;6.78;;
58752;SDS011;44525;46.052;13.610;2023-05-27T11:57:41;12.53;;;6.83;;
58752;SDS011;44525;46.052;13.610;2023-05-27T12:00:06;10.63;;;7.25;;
58752;SDS011;44525;46.052;13.610;2023-05-27T12:02:33;11.55;;;6.88;;
58752;SDS011;44525;46.052;13.610;2023-05-27T12:04:58;9.98;;;7.47;;
58752;SDS011;44525;46.052;13.610;2023-05-27T12:07:23;12.23;;;7.07;;
58752;SDS011;44525;46.052;13.610;2023-05-27T12:09:48;11.00;;;6.82;;
58752;SDS011;44525;46.052;13.610;2023-05-27T12:12:14;9.95;;;6.80;;
58752;SDS011;44525;46.052;13.610;2023-05-27T12:14:39;10.23;;;6.78;;
58752;SDS011;44525;46.052;13.610;2023-05-27T12:17:05;10.18;;;7.30;;
58752;SDS011;44525;46.052;13.610;2023-05-27T12:19:30;9.38;;;6.60;;
58752;SDS011;44525;46.052;13.610;2023-05-27T12:21:59;10.77;;;6.90;;
58752;SDS011;44525;46.052;13.610;2023-05-27T12:24:24;8.73;;;6.38;;
58752;SDS011;44525;46.052;13.610;2023-05-27T12:26:50;8.95;;;6.47;;
58752;SDS011;44525;46.052;13.610;2023-05-27T12:29:15;12.27;;;7.15;;
58752;SDS011;44525;46.052;13.610;2023-05-27T12:31:40;10.32;;;6.43;;
58752;SDS011;44525;46.052;13.610;2023-05-27T12:34:06;12.02;;;7.00;;
58752;SDS011;44525;46.052;13.610;2023-05-27T12:36:31;9.75;;;6.63;;
58752;SDS011;44525;46.052;13.610;2023-05-27T12:38:57;11.45;;;6.47;;
58752;SDS011;44525;46.052;13.610;2023-05-27T12:41:22;10.32;;;6.63;;
58752;SDS011;44525;46.052;13.610;2023-05-27T12:43:47;9.85;;;6.68;;
58752;SDS011;44525;46.052;13.610;2023-05-27T12:46:13;11.27;;;7.05;;
58752;SDS011;44525;46.052;13.610;2023-05-27T12:48:38;11.27;;;6.70;;
58752;SDS011;44525;46.052;13.610;2023-05-27T12:51:03;8.90;;;6.28;;
58752;SDS011;44525;46.052;13.610;2023-05-27T12:53:29;10.30;;;6.75;;
58752;SDS011;44525;46.052;13.610;2023-05-27T12:55:54;10.85;;;6.80;;
58752;SDS011;44525;46.052;13.610;2023-05-27T12:58:20;10.45;;;6.82;;
58752;SDS011;44525;46.052;13.610;2023-05-27T13:00:45;10.68;;;6.82;;
58752;SDS011;44525;46.052;13.610;2023-05-27T13:03:11;9.82;;;6.63;;
58752;SDS011;44525;46.052;13.610;2023-05-27T13:05:36;10.50;;;6.13;;
58752;SDS011;44525;46.052;13.610;2023-05-27T13:08:02;10.43;;;6.22;;
58752;SDS011;44525;46.052;13.610;2023-05-27T13:10:32;10.40;;;7.05;;
58752;SDS011;44525;46.052;13.610;2023-05-27T13:12:59;10.88;;;7.10;;
58752;SDS011;44525;46.052;13.610;2023-05-27T13:15:25;8.80;;;6.60;;
58752;SDS011;44525;46.052;13.610;2023-05-27T13:17:51;9.13;;;6.47;;
58752;SDS011;44525;46.052;13.610;2023-05-27T13:20:17;9.73;;;6.50;;
58752;SDS011;44525;46.052;13.610;2023-05-27T13:22:44;9.80;;;6.80;;
58752;SDS011;44525;46.052;13.610;2023-05-27T13:25:10;11.25;;;6.63;;
58752;SDS011;44525;46.052;13.610;2023-05-27T13:27:37;11.57;;;6.82;;
58752;SDS011;44525;46.052;13.610;2023-05-27T13:30:04;10.27;;;6.70;;
58752;SDS011;44525;46.052;13.610;2023-05-27T13:32:30;8.65;;;6.05;;
58752;SDS011;44525;46.052;13.610;2023-05-27T13:34:55;11.38;;;6.43;;
58752;SDS011;44525;46.052;13.610;2023-05-27T13:37:21;9.40;;;6.47;;
58752;SDS011;44525;46.052;13.610;2023-05-27T13:39:46;9.98;;;5.97;;
58752;SDS011;44525;46.052;13.610;2023-05-27T13:42:12;10.65;;;6.60;;
58752;SDS011;44525;46.052;13.610;2023-05-27T13:44:37;12.40;;;6.90;;
58752;SDS011;44525;46.052;13.610;2023-05-27T13:47:02;10.93;;;6.70;;
58752;SDS011;44525;46.052;13.610;2023-05-27T13:49:28;9.95;;;6.60;;
58752;SDS011;44525;46.052;13.610;2023-05-27T13:51:53;8.68;;;6.28;;
58752;SDS011;44525;46.052;13.610;2023-05-27T13:54:19;10.07;;;6.55;;
58752;SDS011;44525;46.052;13.610;2023-05-27T13:56:44;9.93;;;6.50;;
58752;SDS011;44525;46.052;13.610;2023-05-27T13:59:10;11.25;;;6.30;;
58752;SDS011;44525;46.052;13.610;2023-05-27T14:01:37;9.70;;;6.43;;
58752;SDS011;44525;46.052;13.610;2023-05-27T14:04:03;12.55;;;6.40;;
58752;SDS011;44525;46.052;13.610;2023-05-27T14:06:28;10.07;;;6.55;;
58752;SDS011;44525;46.052;13.610;2023-05-27T14:08:54;17.25;;;7.03;;
58752;SDS011;44525;46.052;13.610;2023-05-27T14:11:20;11.35;;;6.75;;
58752;SDS011;44525;46.052;13.610;2023-05-27T14:13:46;10.60;;;6.30;;
58752;SDS011;44525;46.052;13.610;2023-05-27T14:16:13;11.93;;;5.72;;
58752;SDS011;44525;46.052;13.610;2023-05-27T14:18:38;9.85;;;6.70;;
58752;SDS011;44525;46.052;13.610;2023-05-27T14:21:03;11.95;;;6.38;;
58752;SDS011;44525;46.052;13.610;2023-05-27T14:23:29;9.95;;;6.20;;
58752;SDS011;44525;46.052;13.610;2023-05-27T14:25:54;9.23;;;5.85;;
58752;SDS011;44525;46.052;13.610;2023-05-27T14:28:19;12.48;;;6.57;;
58752;SDS011;44525;46.052;13.610;2023-05-27T14:30:45;8.82;;;6.00;;
58752;SDS011;44525;46.052;13.610;2023-05-27T14:33:11;8.38;;;5.93;;